createdAt,value
2019-01-27T00:00:00.980Z,67.31
2019-01-27T00:05:08.443Z,67.33
2019-01-27T00:10:14.912Z,66.97
2019-01-27T00:15:20.721Z,67.00
2019-01-27T00:20:26.329Z,66.45
2019-01-27T00:25:33.430Z,66.11
2019-01-27T00:30:39.026Z,65.96
2019-01-27T00:35:44.643Z,66.07
2019-01-27T00:40:50.931Z,66.22
2019-01-27T00:45:56.605Z,65.13
2019-01-27T00:51:02.620Z,66.18
2019-01-27T00:56:09.946Z,65.57
2019-01-27T01:01:17.992Z,65.61
2019-01-27T01:06:23.865Z,65.32
2019-01-27T01:11:29.901Z,65.86
2019-01-27T01:16:35.541Z,65.40
2019-01-27T01:21:41.187Z,65.82
2019-01-27T01:26:46.737Z,65.17
2019-01-27T01:31:52.323Z,66.87
2019-01-27T01:36:57.897Z,66.06
2019-01-27T01:42:03.563Z,66.63
2019-01-27T01:47:09.202Z,67.68
2019-01-27T01:52:14.824Z,67.68
2019-01-27T01:57:21.398Z,66.67
2019-01-27T02:02:28.233Z,66.52
2019-01-27T02:07:34.904Z,66.50
2019-01-27T02:12:40.920Z,66.80
2019-01-27T02:18:27.329Z,66.50
2019-01-27T02:24:01.850Z,66.71
2019-01-27T02:29:07.651Z,66.62
2019-01-27T02:34:13.219Z,65.74
2019-01-27T02:39:19.841Z,64.77
2019-01-27T02:44:25.623Z,64.31
2019-01-27T02:49:31.591Z,64.52
2019-01-27T02:54:37.249Z,65.94
2019-01-27T02:59:42.771Z,65.88
2019-01-27T03:04:48.321Z,65.48
2019-01-27T03:09:53.875Z,65.76
2019-01-27T03:14:59.555Z,65.23
2019-01-27T03:20:06.901Z,64.64
2019-01-27T03:25:13.043Z,64.15
2019-01-27T03:30:18.988Z,64.27
2019-01-27T03:35:27.105Z,64.10
2019-01-27T03:40:32.813Z,63.64
2019-01-27T03:45:38.407Z,64.20
2019-01-27T03:50:43.908Z,64.71
2019-01-27T03:55:49.486Z,64.44
2019-01-27T04:00:57.886Z,64.70
2019-01-27T04:06:04.597Z,64.00
2019-01-27T04:11:10.165Z,64.48
2019-01-27T04:16:16.140Z,64.48
2019-01-27T04:21:21.786Z,64.97
2019-01-27T04:26:28.436Z,64.20
2019-01-27T04:31:35.862Z,65.21
2019-01-27T04:36:41.391Z,64.77
2019-01-27T04:41:46.981Z,64.07
2019-01-27T04:46:52.572Z,63.86
2019-01-27T04:51:58.418Z,63.13
2019-01-27T04:57:04.065Z,63.40
2019-01-27T05:02:09.664Z,63.09
2019-01-27T05:07:15.495Z,63.15
2019-01-27T05:12:21.051Z,63.25
2019-01-27T05:17:27.832Z,63.44
2019-01-27T05:22:33.519Z,63.20
2019-01-27T05:27:39.160Z,64.02
2019-01-27T05:32:46.274Z,63.26
2019-01-27T05:37:51.980Z,63.18
2019-01-27T05:42:57.477Z,63.14
2019-01-27T05:48:04.066Z,62.92
2019-01-27T05:53:09.618Z,63.28
2019-01-27T05:58:17.796Z,64.08
2019-01-27T06:03:23.372Z,63.77
2019-01-27T06:08:30.199Z,63.50
2019-01-27T06:13:35.755Z,63.28
2019-01-27T06:18:42.156Z,62.77
2019-01-27T06:23:47.790Z,62.58
2019-01-27T06:28:53.766Z,62.87
2019-01-27T06:34:19.431Z,62.65
2019-01-27T06:39:25.282Z,62.44
2019-01-27T06:44:30.891Z,61.95
2019-01-27T06:49:38.771Z,61.66
2019-01-27T06:54:44.703Z,61.66
2019-01-27T06:59:55.168Z,61.69
2019-01-27T07:05:25.306Z,61.11
2019-01-27T07:10:58.732Z,61.09
2019-01-27T07:16:22.100Z,60.85
2019-01-27T07:21:46.656Z,61.88
2019-01-27T07:27:13.256Z,61.90
2019-01-27T07:32:49.882Z,61.72
2019-01-27T07:38:13.012Z,61.46
2019-01-27T07:43:47.037Z,61.39
2019-01-27T07:49:10.314Z,61.88
2019-01-27T07:54:40.766Z,61.68
2019-01-27T08:00:07.501Z,62.22
2019-01-27T08:05:34.963Z,62.07
2019-01-27T08:11:04.382Z,62.52
2019-01-27T08:16:28.153Z,61.67
2019-01-27T08:21:57.092Z,61.70
2019-01-27T08:27:30.265Z,61.56
2019-01-27T08:33:09.904Z,61.87
2019-01-27T08:38:37.406Z,61.69
2019-01-27T08:44:13.909Z,61.56
2019-01-27T08:49:19.541Z,61.01
2019-01-27T08:54:25.151Z,61.02
2019-01-27T08:59:33.058Z,61.79
2019-01-27T09:04:52.746Z,62.07
2019-01-27T09:10:16.010Z,62.85
2019-01-27T09:15:46.349Z,62.70
2019-01-27T09:21:26.399Z,63.01
2019-01-27T09:26:51.297Z,62.58
2019-01-27T09:32:25.085Z,62.73
2019-01-27T09:37:55.439Z,63.08
2019-01-27T09:43:16.618Z,62.63
2019-01-27T09:48:56.231Z,62.55
2019-01-27T09:54:10.821Z,62.85
2019-01-27T09:59:24.086Z,62.85
2019-01-27T10:04:54.563Z,61.89
2019-01-27T10:10:25.016Z,60.67
2019-01-27T10:15:45.070Z,60.18
2019-01-27T10:21:08.413Z,59.89
2019-01-27T10:26:34.131Z,59.68
2019-01-27T10:32:17.542Z,59.08
2019-01-27T10:37:33.425Z,59.46
2019-01-27T10:42:59.305Z,58.37
2019-01-27T10:48:33.695Z,58.46
2019-01-27T10:53:51.131Z,59.12
2019-01-27T10:59:08.649Z,57.58
2019-01-27T11:04:32.653Z,58.06
2019-01-27T11:10:03.134Z,57.82
2019-01-27T11:15:33.428Z,58.32
2019-01-27T11:21:08.176Z,58.71
2019-01-27T11:26:44.810Z,59.68
2019-01-27T11:32:15.301Z,59.13
2019-01-27T11:37:35.390Z,59.18
2019-01-27T11:43:10.648Z,60.69
2019-01-27T11:48:41.392Z,59.92
2019-01-27T11:53:47.300Z,59.92
2019-01-27T11:58:52.964Z,60.88
2019-01-27T12:03:58.831Z,60.70
2019-01-27T12:09:08.619Z,61.31
2019-01-27T12:14:14.466Z,61.31
2019-01-27T12:19:23.101Z,62.20
2019-01-27T12:24:30.757Z,62.20
2019-01-27T12:29:37.627Z,61.70
2019-01-27T12:34:45.319Z,61.75
2019-01-27T12:39:54.124Z,61.50
2019-01-27T12:45:00.238Z,60.60
2019-01-27T12:50:08.743Z,59.24
2019-01-27T12:55:15.221Z,58.75
2019-01-27T13:00:32.316Z,59.25
2019-01-27T13:05:41.201Z,59.46
2019-01-27T13:10:47.020Z,59.84
2019-01-27T13:15:56.885Z,58.18
2019-01-27T13:21:02.759Z,58.04
2019-01-27T13:26:10.634Z,58.10
2019-01-27T13:31:19.563Z,58.50
2019-01-27T13:36:25.609Z,57.39
2019-01-27T13:41:31.376Z,57.65
2019-01-27T13:46:38.199Z,58.92
2019-01-27T13:51:44.531Z,59.41
2019-01-27T13:56:53.070Z,59.41
2019-01-27T14:02:00.993Z,58.24
2019-01-27T14:07:06.857Z,57.67
2019-01-27T14:12:16.013Z,58.06
2019-01-27T14:17:23.475Z,57.16
2019-01-27T14:22:31.997Z,57.59
2019-01-27T14:27:39.686Z,56.70
2019-01-27T14:32:49.123Z,57.90
2019-01-27T14:37:59.591Z,57.27
2019-01-27T14:43:06.884Z,57.25
2019-01-27T14:48:15.578Z,57.29
2019-01-27T14:53:21.403Z,56.80
2019-01-27T14:58:27.273Z,56.75
2019-01-27T15:03:33.138Z,56.79
2019-01-27T15:08:38.935Z,56.82
2019-01-27T15:13:49.983Z,57.11
2019-01-27T15:18:56.776Z,57.79
2019-01-27T15:24:06.840Z,57.89
2019-01-27T15:29:13.120Z,57.67
2019-01-27T15:34:20.172Z,58.89
2019-01-27T15:39:27.534Z,59.46
2019-01-27T15:44:35.189Z,59.14
2019-01-27T15:49:41.805Z,59.40
2019-01-27T15:54:48.957Z,60.22
2019-01-27T15:59:57.763Z,59.38
2019-01-27T16:05:08.649Z,59.23
2019-01-27T16:10:19.355Z,60.33
2019-01-27T16:15:28.507Z,59.89
2019-01-27T16:20:45.122Z,59.62
2019-01-27T16:25:51.886Z,59.48
2019-01-27T16:31:23.773Z,60.02
2019-01-27T16:36:31.431Z,60.58
2019-01-27T16:41:47.892Z,59.86
2019-01-27T16:46:57.375Z,59.87
2019-01-27T16:52:04.744Z,59.36
2019-01-27T16:57:10.821Z,60.01
2019-01-27T17:02:17.009Z,60.04
2019-01-27T17:07:26.382Z,60.26
2019-01-27T17:12:33.989Z,60.96
2019-01-27T17:17:40.531Z,61.98
2019-01-27T17:22:47.960Z,61.98
2019-01-27T17:27:54.502Z,61.47
2019-01-27T17:33:04.121Z,61.60
2019-01-27T17:38:12.603Z,61.60
2019-01-27T17:43:23.124Z,61.26
2019-01-27T17:48:29.851Z,62.61
2019-01-27T17:54:04.063Z,61.87
2019-01-27T17:59:29.892Z,61.98
2019-01-27T18:04:42.448Z,61.29
2019-01-27T18:09:57.588Z,62.17
2019-01-27T18:15:05.801Z,62.49
2019-01-27T18:20:16.952Z,62.43
2019-01-27T18:25:22.788Z,61.94
2019-01-27T18:30:28.883Z,62.25
2019-01-27T18:35:36.286Z,62.66
2019-01-27T18:40:48.009Z,61.39
2019-01-27T18:45:55.619Z,61.79
2019-01-27T18:51:10.861Z,62.16
2019-01-27T18:56:36.335Z,62.41
2019-01-27T19:02:17.231Z,63.25
2019-01-27T19:07:46.952Z,61.59
2019-01-27T19:13:29.753Z,61.67
2019-01-27T19:18:56.233Z,62.17
2019-01-27T19:24:33.399Z,62.21
2019-01-27T19:30:10.498Z,62.72
2019-01-27T19:35:47.625Z,62.54
2019-01-27T19:41:25.357Z,63.18
2019-01-27T19:47:04.452Z,64.29
2019-01-27T19:52:30.230Z,64.58
2019-01-27T19:58:08.680Z,64.58
2019-01-27T20:03:39.932Z,65.12
2019-01-27T20:09:21.253Z,64.96
2019-01-27T20:14:59.005Z,64.48
2019-01-27T20:20:33.586Z,64.30
2019-01-27T20:25:51.094Z,64.26
2019-01-27T20:31:22.199Z,63.57
2019-01-27T20:36:35.778Z,64.31
2019-01-27T20:42:06.655Z,64.40
2019-01-27T20:47:38.034Z,64.40
2019-01-27T20:53:07.147Z,64.12
2019-01-27T20:58:29.866Z,63.63
2019-01-27T21:04:04.302Z,64.34
2019-01-27T21:09:25.065Z,63.56
2019-01-27T21:14:58.726Z,63.90
2019-01-27T21:20:08.948Z,63.91
2019-01-27T21:25:15.299Z,65.19
2019-01-27T21:30:25.184Z,63.33
2019-01-27T21:35:32.335Z,64.11
2019-01-27T21:40:40.620Z,64.52
2019-01-27T21:45:46.350Z,63.70
2019-01-27T21:50:54.527Z,64.16
2019-01-27T21:56:01.715Z,64.16
2019-01-27T22:01:08.710Z,63.66
2019-01-27T22:06:14.843Z,64.60
2019-01-27T22:11:21.256Z,65.82
2019-01-27T22:16:27.559Z,65.82
2019-01-27T22:21:33.298Z,65.18
2019-01-27T22:26:39.972Z,66.14
2019-01-27T22:31:45.645Z,64.58
2019-01-27T22:36:51.285Z,65.29
2019-01-27T22:41:57.565Z,65.79
2019-01-27T22:47:04.527Z,65.05
2019-01-27T22:52:11.452Z,64.39
2019-01-27T22:57:19.346Z,64.60
2019-01-27T23:02:25.050Z,63.67
2019-01-27T23:07:32.152Z,63.34
2019-01-27T23:12:38.508Z,62.62
2019-01-27T23:17:44.137Z,63.87
2019-01-27T23:22:50.021Z,62.26
2019-01-27T23:27:55.575Z,62.26
2019-01-27T23:33:02.162Z,62.09
2019-01-27T23:38:07.807Z,62.53
2019-01-27T23:43:13.404Z,62.66
2019-01-27T23:48:18.966Z,62.16
2019-01-27T23:53:29.238Z,62.46
2019-01-27T23:58:34.831Z,62.46
